Time;durP1;ratioP1;P1;durP2;ratioP2;P2;SDS_P1;SDS_P2;PMS_P1;PMS_P2;Temp;Humidity;BMP_temperature;BMP_pressure;BME280_temperature;BME280_humidity;BME280_pressure;Samples;Min_cycle;Max_cycle;Signal;HPM_P1;HPM_P2
2024/01/20 00:02:16;;;;;;;1.40;1.30;;;-0.10;99.90;;;;;;5155826;27;20439;-74
2024/01/20 00:04:42;;;;;;;2.42;2.30;;;-0.10;99.90;;;;;;5155721;27;20041;-73
2024/01/20 00:07:07;;;;;;;1.60;1.50;;;-0.10;99.90;;;;;;5155674;27;20125;-75
2024/01/20 00:09:33;;;;;;;1.40;1.30;;;-0.20;99.90;;;;;;5155612;27;20042;-74
2024/01/20 00:11:59;;;;;;;1.50;1.40;;;-0.20;99.90;;;;;;5155252;27;20051;-74
2024/01/20 00:14:24;;;;;;;1.90;1.42;;;-0.20;99.90;;;;;;5155610;27;20122;-74
2024/01/20 00:16:50;;;;;;;1.40;1.30;;;-0.10;99.90;;;;;;5155578;27;20067;-73
2024/01/20 00:19:15;;;;;;;1.70;1.60;;;-0.20;99.90;;;;;;5155451;27;20478;-73
2024/01/20 00:21:41;;;;;;;2.78;2.58;;;-0.20;99.90;;;;;;5155439;27;20075;-73
2024/01/20 00:24:07;;;;;;;1.40;1.30;;;0.20;99.90;;;;;;5155557;27;20046;-74
2024/01/20 00:26:33;;;;;;;1.40;1.30;;;-0.30;99.90;;;;;;5155476;27;20394;-74
2024/01/20 00:28:59;;;;;;;2.00;1.88;;;-0.30;99.90;;;;;;5155844;27;20050;-74
2024/01/20 00:31:24;;;;;;;1.40;1.30;;;-0.30;99.90;;;;;;5155405;27;20039;-74
2024/01/20 00:33:50;;;;;;;1.40;1.30;;;-0.10;99.90;;;;;;5155380;27;20517;-73
2024/01/20 00:36:16;;;;;;;1.50;1.40;;;-0.30;99.90;;;;;;5155341;27;20482;-75
2024/01/20 00:38:42;;;;;;;1.50;1.40;;;-0.30;99.90;;;;;;5155318;27;20042;-73
2024/01/20 00:41:10;;;;;;;1.40;1.30;;;-0.30;99.90;;;;;;5155193;27;20050;-75
2024/01/20 00:43:36;;;;;;;1.50;1.40;;;-0.30;99.90;;;;;;5155547;27;20121;-74
2024/01/20 00:46:02;;;;;;;1.60;1.50;;;-0.30;99.90;;;;;;5155278;27;20457;-75
2024/01/20 00:48:28;;;;;;;4.70;4.40;;;-0.30;99.90;;;;;;5155112;27;20042;-74
2024/01/20 00:50:53;;;;;;;3.42;3.17;;;-0.30;99.90;;;;;;5155292;27;20055;-74
2024/01/20 00:53:19;;;;;;;1.58;1.48;;;-0.30;99.90;;;;;;5155695;27;20039;-75
2024/01/20 00:55:44;;;;;;;1.40;1.30;;;-0.30;99.90;;;;;;5155172;27;20485;-74
2024/01/20 00:58:10;;;;;;;1.35;1.25;;;-0.30;99.90;;;;;;5159042;27;20042;-74
2024/01/20 01:00:36;;;;;;;1.55;1.45;;;-0.30;99.90;;;;;;5159354;27;20042;-74
2024/01/20 01:03:03;;;;;;;1.77;1.67;;;-0.30;99.90;;;;;;5159294;27;20045;-73
2024/01/20 01:05:28;;;;;;;1.40;1.30;;;-0.40;99.90;;;;;;5159190;27;20081;-74
2024/01/20 01:07:55;;;;;;;1.38;1.27;;;-0.40;99.90;;;;;;5158896;27;20078;-74
2024/01/20 01:10:21;;;;;;;;;;;-0.30;99.90;;;;;;5159337;27;20043;-73
2024/01/20 01:12:46;;;;;;;1.50;1.40;;;-0.40;99.90;;;;;;5158741;27;19990;-73
2024/01/20 01:15:12;;;;;;;3.53;3.22;;;0.30;99.90;;;;;;5158856;27;20087;-74
2024/01/20 01:17:38;;;;;;;1.30;1.20;;;-0.40;99.90;;;;;;5159335;27;20460;-75
2024/01/20 01:20:04;;;;;;;9.02;7.43;;;-0.40;99.90;;;;;;5159245;27;20045;-74
2024/01/20 01:22:29;;;;;;;8.02;6.43;;;-0.40;99.90;;;;;;5159057;27;20050;-75
2024/01/20 01:24:55;;;;;;;4.10;3.75;;;-0.40;99.90;;;;;;5158820;27;20474;-74
2024/01/20 01:27:21;;;;;;;2.35;2.20;;;-0.50;99.90;;;;;;5158792;27;20099;-73
2024/01/20 01:29:46;;;;;;;1.40;1.30;;;-0.40;99.90;;;;;;5158823;27;20053;-73
2024/01/20 01:32:12;;;;;;;1.40;1.30;;;-0.50;99.90;;;;;;5140996;27;20058;-73
2024/01/20 01:34:38;;;;;;;1.40;1.30;;;-0.50;99.90;;;;;;5158675;27;20478;-73
2024/01/20 01:37:03;;;;;;;1.35;1.25;;;-0.50;99.90;;;;;;5158693;27;20046;-74
2024/01/20 01:39:29;;;;;;;1.65;1.55;;;-0.50;99.90;;;;;;5158311;27;20039;-73
2024/01/20 01:41:54;;;;;;;1.60;1.50;;;-0.50;99.90;;;;;;5158181;27;20070;-75
2024/01/20 01:44:20;;;;;;;5.20;2.85;;;-0.50;99.90;;;;;;5158516;27;20089;-75
2024/01/20 01:46:46;;;;;;;1.40;1.30;;;-0.50;99.90;;;;;;5158453;27;20049;-74
2024/01/20 01:49:12;;;;;;;8.98;5.18;;;-0.50;99.90;;;;;;5158470;27;20039;-73
2024/01/20 01:51:38;;;;;;;2.08;1.98;;;-0.60;99.90;;;;;;5158481;27;20462;-73
2024/01/20 01:54:04;;;;;;;3.03;2.83;;;-0.50;99.90;;;;;;5158447;27;20367;-73
2024/01/20 01:56:30;;;;;;;1.40;1.30;;;0.20;99.90;;;;;;5158200;27;20121;-73
2024/01/20 01:58:56;;;;;;;1.63;1.52;;;-0.60;99.90;;;;;;5158138;27;20480;-74
2024/01/20 02:01:22;;;;;;;1.63;1.52;;;-0.60;99.90;;;;;;5158182;27;20039;-73
2024/01/20 02:03:48;;;;;;;1.93;1.70;;;-0.60;99.90;;;;;;5158091;27;20046;-74
2024/01/20 02:06:14;;;;;;;2.35;2.15;;;-0.60;99.90;;;;;;5158287;27;20348;-75
2024/01/20 02:08:40;;;;;;;1.50;1.40;;;-0.60;99.90;;;;;;5157648;27;20091;-74
2024/01/20 02:11:07;;;;;;;1.40;1.30;;;-0.60;99.90;;;;;;5157864;27;20038;-74
2024/01/20 02:13:34;;;;;;;1.40;1.30;;;-0.60;99.90;;;;;;5157936;27;20129;-73
2024/01/20 02:16:01;;;;;;;2.33;2.15;;;-0.60;99.90;;;;;;5158221;27;20051;-73
2024/01/20 02:18:27;;;;;;;2.30;2.20;;;0.50;99.90;;;;;;5157684;27;20117;-73
2024/01/20 02:20:53;;;;;;;2.10;2.00;;;-0.60;99.90;;;;;;5157798;27;20457;-74
2024/01/20 02:23:18;;;;;;;1.48;1.38;;;-0.60;99.90;;;;;;5157759;27;20038;-73
2024/01/20 02:25:45;;;;;;;4.85;2.80;;;-0.60;99.90;;;;;;5157611;27;20179;-74
2024/01/20 02:28:10;;;;;;;1.40;1.30;;;-0.70;99.90;;;;;;5157699;27;20042;-75
2024/01/20 02:30:36;;;;;;;13.50;7.38;;;-0.70;99.90;;;;;;5158001;27;20492;-74
2024/01/20 02:33:02;;;;;;;1.85;1.75;;;-0.50;99.90;;;;;;5157549;27;20133;-73
2024/01/20 02:35:27;;;;;;;2.30;2.13;;;-0.70;99.90;;;;;;5139560;27;20061;-74
2024/01/20 02:37:53;;;;;;;3.05;2.85;;;-0.70;99.90;;;;;;5157420;27;20039;-73
2024/01/20 02:40:19;;;;;;;1.60;1.50;;;-0.70;99.90;;;;;;5157366;27;20138;-74
2024/01/20 02:42:44;;;;;;;1.50;1.40;;;-0.70;99.90;;;;;;5157377;27;20046;-73
2024/01/20 02:45:10;;;;;;;1.40;1.30;;;-0.80;99.90;;;;;;5157358;27;20463;-73
2024/01/20 02:47:36;;;;;;;1.63;1.52;;;-0.80;99.90;;;;;;5157300;27;20054;-73
2024/01/20 02:50:01;;;;;;;1.50;1.40;;;-0.80;99.90;;;;;;5156934;27;20038;-74
2024/01/20 02:52:27;;;;;;;1.73;1.63;;;-0.80;99.90;;;;;;5157391;27;20043;-74
2024/01/20 02:54:53;;;;;;;1.63;1.52;;;-0.80;99.90;;;;;;5157092;27;20047;-75
2024/01/20 02:57:19;;;;;;;1.98;1.88;;;-0.60;99.90;;;;;;5156964;27;20099;-73
2024/01/20 02:59:45;;;;;;;2.33;2.05;;;-0.80;99.90;;;;;;5156959;27;20043;-74
2024/01/20 03:02:10;;;;;;;4.40;4.10;;;-0.90;99.90;;;;;;5156968;27;20485;-73
2024/01/20 03:04:36;;;;;;;1.50;1.40;;;-0.90;99.90;;;;;;5156932;27;20051;-73
2024/01/20 03:07:01;;;;;;;1.30;1.20;;;-0.90;99.90;;;;;;5156918;27;20045;-73
2024/01/20 03:09:27;;;;;;;1.50;1.40;;;-0.90;99.90;;;;;;5156757;27;20046;-75
2024/01/20 03:11:52;;;;;;;1.60;1.50;;;-1.00;99.90;;;;;;5156724;27;20201;-73
2024/01/20 03:14:18;;;;;;;2.03;1.92;;;-0.90;99.90;;;;;;5156747;27;20084;-75
2024/01/20 03:16:44;;;;;;;1.70;1.60;;;-1.00;99.90;;;;;;5156657;27;20042;-73
2024/01/20 03:19:09;;;;;;;1.50;1.40;;;-1.00;99.90;;;;;;5155890;27;20440;-73
2024/01/20 03:21:35;;;;;;;1.40;1.30;;;-1.00;99.90;;;;;;5156619;27;20058;-73
2024/01/20 03:24:00;;;;;;;1.65;1.55;;;-1.00;99.90;;;;;;5156332;27;20588;-74
2024/01/20 03:26:26;;;;;;;1.50;1.40;;;-1.00;99.90;;;;;;5156469;27;20042;-75
2024/01/20 03:28:52;;;;;;;1.40;1.30;;;0.30;99.90;;;;;;5156216;27;20430;-73
2024/01/20 03:31:17;;;;;;;20.85;4.15;;;-0.70;99.90;;;;;;5156770;27;20489;-73
2024/01/20 03:33:43;;;;;;;1.58;1.48;;;-1.00;99.90;;;;;;5156292;27;20045;-74
2024/01/20 03:36:10;;;;;;;1.40;1.30;;;-1.00;99.90;;;;;;5156323;27;20069;-74
2024/01/20 03:38:36;;;;;;;2.63;2.42;;;-1.00;99.90;;;;;;5156160;27;20042;-73
2024/01/20 03:41:01;;;;;;;1.50;1.40;;;-0.40;99.90;;;;;;5156190;27;20051;-73
2024/01/20 03:43:27;;;;;;;1.50;1.40;;;-1.00;99.90;;;;;;5155927;27;20039;-73
2024/01/20 03:45:55;;;;;;;1.60;1.50;;;-0.70;99.90;;;;;;5156162;27;20039;-73
2024/01/20 03:48:21;;;;;;;1.60;1.50;;;-1.00;99.90;;;;;;5156397;27;20074;-74
2024/01/20 03:50:46;;;;;;;1.50;1.40;;;-1.00;99.90;;;;;;5156163;27;20089;-73
2024/01/20 03:53:12;;;;;;;1.98;1.85;;;-1.00;99.90;;;;;;5155968;27;20038;-73
2024/01/20 03:55:38;;;;;;;2.63;2.45;;;-1.00;99.90;;;;;;5155882;27;20078;-73
2024/01/20 03:58:03;;;;;;;1.70;1.60;;;-1.00;99.90;;;;;;5155499;27;20175;-73
2024/01/20 04:00:29;;;;;;;1.70;1.60;;;-1.00;99.90;;;;;;5155705;27;20053;-73
2024/01/20 04:02:55;;;;;;;1.83;1.73;;;-1.00;99.90;;;;;;5155724;27;20039;-73
2024/01/20 04:05:21;;;;;;;1.73;1.40;;;-1.00;99.90;;;;;;5155778;27;20042;-73
2024/01/20 04:07:47;;;;;;;1.50;1.40;;;-1.00;99.90;;;;;;5155735;27;20053;-73
2024/01/20 04:10:12;;;;;;;1.60;1.50;;;-1.00;99.90;;;;;;5155684;27;20082;-73
2024/01/20 04:12:41;;;;;;;1.50;1.40;;;-1.00;99.90;;;;;;5155389;27;20046;-73
2024/01/20 04:15:07;;;;;;;1.80;1.70;;;-1.00;99.90;;;;;;5155614;27;20125;-74
2024/01/20 04:17:34;;;;;;;1.95;1.85;;;-1.00;99.90;;;;;;5155792;27;20054;-73
2024/01/20 04:19:59;;;;;;;1.60;1.50;;;-1.00;99.90;;;;;;5155505;27;20130;-74
2024/01/20 04:22:25;;;;;;;2.30;2.20;;;-0.80;99.90;;;;;;5155244;27;20078;-73
2024/01/20 04:24:50;;;;;;;2.75;1.52;;;-1.00;99.90;;;;;;5155257;27;20038;-73
2024/01/20 04:27:16;;;;;;;2.90;2.70;;;-1.00;99.90;;;;;;5155831;27;20035;-72
2024/01/20 04:29:41;;;;;;;1.90;1.70;;;-1.00;99.90;;;;;;5155287;27;20078;-73
2024/01/20 04:32:07;;;;;;;3.45;3.25;;;1.20;99.90;;;;;;5155343;27;20046;-73
2024/01/20 04:34:33;;;;;;;3.72;1.60;;;-1.00;99.90;;;;;;5155349;27;20103;-73
2024/01/20 04:36:58;;;;;;;1.70;1.60;;;0.60;99.90;;;;;;5155492;27;20434;-72
2024/01/20 04:39:24;;;;;;;1.77;1.67;;;-1.00;99.90;;;;;;5155246;27;20043;-73
2024/01/20 04:41:49;;;;;;;1.60;1.50;;;-1.00;99.90;;;;;;5155231;27;20467;-72
2024/01/20 04:44:15;;;;;;;1.50;1.40;;;-1.00;99.90;;;;;;5155235;27;20233;-72
2024/01/20 04:46:40;;;;;;;2.28;2.17;;;-0.80;99.90;;;;;;5155408;27;20050;-73
2024/01/20 04:49:06;;;;;;;3.53;3.25;;;-1.00;99.90;;;;;;5155394;27;20091;-76
2024/01/20 04:51:32;;;;;;;1.50;1.40;;;-1.10;99.90;;;;;;5155354;27;20050;-73
2024/01/20 04:53:58;;;;;;;1.70;1.60;;;-1.10;99.90;;;;;;5155144;27;20382;-74
2024/01/20 04:56:23;;;;;;;1.50;1.40;;;-1.10;99.90;;;;;;5155379;27;20067;-74
2024/01/20 04:58:50;;;;;;;5.70;5.18;;;-1.10;99.90;;;;;;5155163;27;20383;-75
2024/01/20 05:01:15;;;;;;;1.60;1.50;;;0.30;99.90;;;;;;5155106;27;20039;-73
2024/01/20 05:03:41;;;;;;;1.50;1.40;;;-0.80;99.90;;;;;;5155016;27;20039;-76
2024/01/20 05:06:07;;;;;;;5.10;4.78;;;-1.20;99.90;;;;;;5155071;27;20034;-77
2024/01/20 05:08:32;;;;;;;1.63;1.52;;;-1.20;99.90;;;;;;5155106;27;20177;-73
2024/01/20 05:10:58;;;;;;;1.65;1.55;;;-1.20;99.90;;;;;;5155001;27;20074;-73
2024/01/20 05:13:25;;;;;;;1.45;1.35;;;-1.20;99.90;;;;;;5155041;27;20470;-75
2024/01/20 05:15:50;;;;;;;1.50;1.40;;;-1.20;99.90;;;;;;5154913;27;20390;-77
2024/01/20 05:18:16;;;;;;;10.52;7.72;;;-1.10;99.90;;;;;;5155007;27;20035;-74
2024/01/20 05:20:42;;;;;;;1.40;1.30;;;-1.20;99.90;;;;;;5154916;27;20058;-73
2024/01/20 05:23:07;;;;;;;1.60;1.50;;;-1.20;99.90;;;;;;5154857;27;20474;-72
2024/01/20 05:25:33;;;;;;;1.60;1.50;;;-1.30;99.90;;;;;;5154526;27;20046;-74
2024/01/20 05:27:58;;;;;;;4.13;3.83;;;-1.30;99.90;;;;;;5154764;27;20130;-76
2024/01/20 05:30:24;;;;;;;1.70;1.60;;;-1.30;99.90;;;;;;5154807;27;20039;-73
2024/01/20 05:32:50;;;;;;;1.95;1.85;;;-1.30;99.90;;;;;;5154492;27;20047;-74
2024/01/20 05:35:15;;;;;;;1.60;1.50;;;-1.30;99.90;;;;;;5154805;27;20039;-73
2024/01/20 05:37:41;;;;;;;1.50;1.40;;;-1.30;99.90;;;;;;5153542;27;20379;-73
2024/01/20 05:40:07;;;;;;;2.38;2.28;;;-1.30;99.90;;;;;;5152918;27;20043;-73
2024/01/20 05:42:33;;;;;;;1.40;1.30;;;-1.30;99.90;;;;;;5154628;27;20071;-73
2024/01/20 05:44:59;;;;;;;1.50;1.40;;;-1.30;99.90;;;;;;5157924;27;20055;-73
2024/01/20 05:47:25;;;;;;;1.80;1.70;;;-1.30;99.90;;;;;;5157612;27;20062;-73
2024/01/20 05:49:51;;;;;;;1.73;1.63;;;-1.00;99.90;;;;;;5158260;27;20043;-73
2024/01/20 05:52:16;;;;;;;1.52;1.42;;;-1.40;99.90;;;;;;5158385;27;20576;-73
2024/01/20 05:54:42;;;;;;;1.50;1.40;;;-1.30;99.90;;;;;;5158303;27;20096;-73
2024/01/20 05:57:08;;;;;;;1.50;1.40;;;-1.40;99.90;;;;;;5158297;27;20039;-73
2024/01/20 05:59:34;;;;;;;1.50;1.40;;;-1.40;99.90;;;;;;5158131;27;20043;-72
2024/01/20 06:02:00;;;;;;;1.50;1.40;;;-1.40;99.90;;;;;;5158216;27;20162;-72
2024/01/20 06:04:25;;;;;;;1.50;1.40;;;-1.40;99.90;;;;;;5158087;27;20039;-73
2024/01/20 06:06:51;;;;;;;1.50;1.40;;;-1.40;99.90;;;;;;5158031;27;20122;-72
2024/01/20 06:09:17;;;;;;;2.60;2.40;;;-1.40;99.90;;;;;;5158090;27;20439;-73
2024/01/20 06:11:42;;;;;;;1.60;1.50;;;-1.30;99.90;;;;;;5157900;27;20066;-73
2024/01/20 06:14:08;;;;;;;1.80;1.70;;;-1.30;99.90;;;;;;5157963;27;20072;-73
2024/01/20 06:16:36;;;;;;;1.50;1.40;;;-1.30;99.90;;;;;;5157939;27;20386;-73
2024/01/20 06:19:01;;;;;;;1.60;1.50;;;-1.30;99.90;;;;;;5157742;27;20039;-73
2024/01/20 06:21:27;;;;;;;3.55;3.28;;;-1.30;99.90;;;;;;5158095;27;20386;-73
2024/01/20 06:23:53;;;;;;;1.52;1.42;;;-1.30;99.90;;;;;;5157781;27;20042;-73
2024/01/20 06:26:18;;;;;;;1.40;1.30;;;-1.30;99.90;;;;;;5157628;27;20078;-73
2024/01/20 06:28:44;;;;;;;1.40;1.30;;;-1.20;99.90;;;;;;5158262;27;20081;-73
2024/01/20 06:31:20;;;;;;;1.50;1.40;;;-1.30;99.90;;;;;;5157624;27;20091;-73
2024/01/20 06:33:47;;;;;;;1.50;1.40;;;-1.30;99.90;;;;;;5157581;27;20054;-73
2024/01/20 06:36:13;;;;;;;;;;;-1.30;99.90;;;;;;5157943;27;20390;-73
2024/01/20 06:38:38;;;;;;;1.63;1.52;;;-1.30;99.90;;;;;;5157349;27;19941;-73
2024/01/20 06:41:04;;;;;;;4.63;1.90;;;-1.30;99.90;;;;;;5157441;27;20042;-73
2024/01/20 06:43:30;;;;;;;1.60;1.50;;;-1.30;99.90;;;;;;5157352;27;20047;-74
2024/01/20 06:45:55;;;;;;;1.80;1.70;;;-1.20;99.90;;;;;;5157962;27;20059;-73
2024/01/20 06:48:21;;;;;;;1.50;1.40;;;-0.70;99.90;;;;;;5157472;27;20130;-74
2024/01/20 06:50:47;;;;;;;1.50;1.40;;;-1.20;99.90;;;;;;5157152;27;20050;-73
2024/01/20 06:53:12;;;;;;;1.50;1.40;;;-1.20;99.90;;;;;;5156527;27;20165;-74
2024/01/20 06:55:38;;;;;;;1.45;1.35;;;-1.20;99.90;;;;;;5156501;27;20075;-73
2024/01/20 06:58:04;;;;;;;1.50;1.40;;;-1.20;99.90;;;;;;5156814;27;20482;-73
2024/01/20 07:00:31;;;;;;;1.50;1.40;;;-1.30;99.90;;;;;;5157341;27;20090;-73
2024/01/20 07:02:58;;;;;;;1.30;1.20;;;-1.30;99.90;;;;;;5156963;27;20053;-73
2024/01/20 07:05:24;;;;;;;1.40;1.30;;;-1.30;99.90;;;;;;5156948;27;20046;-73
2024/01/20 07:07:49;;;;;;;1.50;1.40;;;-1.30;99.90;;;;;;5156826;27;20470;-73
2024/01/20 07:10:15;;;;;;;1.95;1.85;;;-1.40;99.90;;;;;;5156433;27;20043;-74
2024/01/20 07:12:41;;;;;;;1.50;1.40;;;-1.40;99.90;;;;;;5156872;27;20485;-73
2024/01/20 07:15:07;;;;;;;1.67;1.58;;;-1.40;99.90;;;;;;5156687;27;20125;-73
2024/01/20 07:17:33;;;;;;;1.40;1.30;;;-1.40;99.90;;;;;;5156868;27;20038;-74
2024/01/20 07:19:59;;;;;;;1.60;1.50;;;-1.40;99.90;;;;;;5156762;27;20117;-73
2024/01/20 07:22:25;;;;;;;1.88;1.77;;;-1.50;99.90;;;;;;5156549;27;20130;-74
2024/01/20 07:24:50;;;;;;;1.50;1.40;;;-1.40;99.90;;;;;;5156459;27;20121;-73
2024/01/20 07:27:16;;;;;;;1.50;1.40;;;-1.40;99.90;;;;;;5156449;27;20106;-74
2024/01/20 07:29:41;;;;;;;1.80;1.70;;;-0.40;99.90;;;;;;5137661;27;20042;-73
2024/01/20 07:32:07;;;;;;;2.13;2.03;;;-1.40;99.90;;;;;;5156405;27;20041;-73
2024/01/20 07:34:33;;;;;;;1.70;1.60;;;-1.40;99.90;;;;;;5156235;27;20046;-73
2024/01/20 07:36:59;;;;;;;1.60;1.50;;;-0.90;99.90;;;;;;5156360;27;20122;-73
2024/01/20 07:39:24;;;;;;;1.50;1.40;;;-1.40;99.90;;;;;;5156174;27;20501;-73
2024/01/20 07:41:50;;;;;;;1.80;1.70;;;-1.40;99.90;;;;;;5155891;27;20382;-74
2024/01/20 07:44:15;;;;;;;1.93;1.83;;;-1.30;99.90;;;;;;5156250;27;20074;-74
2024/01/20 07:46:41;;;;;;;1.40;1.30;;;-1.30;99.90;;;;;;5156086;27;20050;-73
2024/01/20 07:49:07;;;;;;;3.45;3.17;;;-1.30;99.90;;;;;;5156125;27;20047;-73
2024/01/20 07:51:33;;;;;;;1.95;1.85;;;-1.30;99.90;;;;;;5155702;27;20447;-73
2024/01/20 07:53:58;;;;;;;1.30;1.20;;;-1.30;99.90;;;;;;5155942;27;20049;-73
2024/01/20 07:56:24;;;;;;;1.40;1.30;;;-1.30;99.90;;;;;;5156275;27;20043;-74
2024/01/20 07:58:50;;;;;;;1.40;1.30;;;-1.30;99.90;;;;;;5155870;27;20122;-74
2024/01/20 08:01:18;;;;;;;5.80;5.28;;;-1.20;99.90;;;;;;5155785;27;20042;-74
2024/01/20 08:03:44;;;;;;;1.77;1.52;;;-1.20;99.90;;;;;;5155708;27;20042;-74
2024/01/20 08:06:10;;;;;;;1.60;1.50;;;-1.20;99.90;;;;;;5155375;27;20074;-73
2024/01/20 08:08:36;;;;;;;1.70;1.60;;;-1.20;99.90;;;;;;5155681;27;20275;-73
2024/01/20 08:11:01;;;;;;;2.60;2.42;;;-1.20;99.90;;;;;;5156297;27;20091;-74
2024/01/20 08:13:27;;;;;;;1.50;1.40;;;-1.20;99.90;;;;;;5155979;27;20039;-73
2024/01/20 08:15:52;;;;;;;1.40;1.30;;;-1.10;99.90;;;;;;5155687;27;20046;-73
2024/01/20 08:18:18;;;;;;;9.73;7.53;;;-1.10;99.90;;;;;;5155451;27;20165;-74
2024/01/20 08:20:44;;;;;;;1.50;1.40;;;-1.10;99.90;;;;;;5155536;27;20035;-73
2024/01/20 08:23:09;;;;;;;1.40;1.30;;;-1.00;99.90;;;;;;5137239;27;20050;-74
2024/01/20 08:25:35;;;;;;;2.78;2.58;;;-0.90;99.90;;;;;;5155392;27;20047;-73
2024/01/20 08:28:00;;;;;;;1.70;1.60;;;-0.70;99.90;;;;;;5155820;27;20038;-73
2024/01/20 08:30:26;;;;;;;1.50;1.40;;;-0.50;99.90;;;;;;5155438;27;20035;-73
2024/01/20 08:32:52;;;;;;;1.40;1.30;;;-0.80;99.90;;;;;;5155385;27;20110;-73
2024/01/20 08:35:17;;;;;;;1.40;1.30;;;-0.80;99.90;;;;;;5155265;27;20470;-74
2024/01/20 08:37:43;;;;;;;1.40;1.30;;;-0.70;99.90;;;;;;5155222;27;20056;-73
2024/01/20 08:40:09;;;;;;;1.40;1.30;;;-0.70;99.90;;;;;;5155166;27;20117;-73
2024/01/20 08:42:34;;;;;;;1.20;1.10;;;-0.60;99.90;;;;;;5155655;27;20046;-73
2024/01/20 08:45:00;;;;;;;2.08;1.92;;;-0.50;99.90;;;;;;5155617;27;20122;-73
2024/01/20 08:47:25;;;;;;;1.30;1.20;;;-0.50;99.90;;;;;;5155213;27;20428;-73
2024/01/20 08:49:51;;;;;;;1.30;1.20;;;-0.40;99.90;;;;;;5154969;27;20035;-73
2024/01/20 08:52:18;;;;;;;1.40;1.30;;;-0.40;99.90;;;;;;5154956;27;20046;-73
2024/01/20 08:54:44;;;;;;;2.20;2.10;;;-0.30;99.90;;;;;;5154804;27;20090;-74
2024/01/20 08:57:09;;;;;;;1.30;1.20;;;-0.30;99.90;;;;;;5155131;27;20050;-73
2024/01/20 08:59:35;;;;;;;1.75;1.63;;;-0.20;99.90;;;;;;5155019;27;20367;-73
2024/01/20 09:02:01;;;;;;;1.50;1.40;;;-0.20;99.90;;;;;;5155139;27;20038;-74
2024/01/20 09:04:26;;;;;;;6.50;5.95;;;-0.10;99.90;;;;;;5155001;27;20095;-74
2024/01/20 09:06:52;;;;;;;1.40;1.30;;;0.00;99.90;;;;;;5155105;27;20049;-73
2024/01/20 09:09:18;;;;;;;1.85;1.67;;;0.00;99.90;;;;;;5155020;27;20043;-73
2024/01/20 09:11:44;;;;;;;1.27;1.17;;;0.10;99.90;;;;;;5154963;27;20050;-74
2024/01/20 09:14:09;;;;;;;3.47;3.20;;;0.10;99.90;;;;;;5155296;27;20287;-74
2024/01/20 09:16:35;;;;;;;1.33;1.23;;;0.60;99.90;;;;;;5154944;27;20042;-73
2024/01/20 09:19:01;;;;;;;1.40;1.30;;;0.20;99.90;;;;;;5158931;27;20095;-73
2024/01/20 09:21:26;;;;;;;1.40;1.30;;;0.20;99.90;;;;;;5159115;27;20561;-73
2024/01/20 09:23:52;;;;;;;1.30;1.20;;;0.20;99.90;;;;;;5158803;27;20038;-74
2024/01/20 09:26:17;;;;;;;1.40;1.30;;;0.30;99.90;;;;;;5158992;27;20122;-73
2024/01/20 09:28:43;;;;;;;1.70;1.60;;;0.30;99.90;;;;;;5158553;27;20506;-73
2024/01/20 09:31:09;;;;;;;2.65;2.17;;;0.30;99.90;;;;;;5159122;27;20049;-73
2024/01/20 09:33:34;;;;;;;5.97;3.05;;;0.30;99.90;;;;;;5158760;27;20035;-74
2024/01/20 09:36:02;;;;;;;1.30;1.20;;;0.30;99.90;;;;;;5158687;27;20131;-73
2024/01/20 09:38:28;;;;;;;1.55;1.45;;;0.40;99.90;;;;;;5158494;27;20043;-73
2024/01/20 09:40:58;;;;;;;1.73;1.63;;;0.40;99.90;;;;;;5158852;27;20047;-73
2024/01/20 09:43:25;;;;;;;2.00;1.45;;;0.40;99.90;;;;;;5158479;27;20038;-73
2024/01/20 09:45:52;;;;;;;1.60;1.40;;;0.40;99.90;;;;;;5158739;27;20102;-73
2024/01/20 09:48:17;;;;;;;;;;;0.40;99.90;;;;;;5158795;27;20458;-74
2024/01/20 09:50:43;;;;;;;2.17;2.03;;;0.40;99.90;;;;;;5158355;27;19923;-74
2024/01/20 09:53:16;;;;;;;1.30;1.20;;;0.40;99.90;;;;;;5158358;27;20053;-73
2024/01/20 09:55:45;;;;;;;2.30;2.20;;;0.50;99.90;;;;;;5158746;27;20451;-74
2024/01/20 09:58:12;;;;;;;1.30;1.20;;;0.60;99.90;;;;;;5158215;27;20064;-74
2024/01/20 10:00:38;;;;;;;;;;;0.50;99.90;;;;;;5158618;27;20401;-73
2024/01/20 10:03:07;;;;;;;1.15;1.05;;;0.70;99.90;;;;;;5158156;27;19966;-74
2024/01/20 10:05:33;;;;;;;1.40;1.30;;;0.70;99.90;;;;;;5158150;27;20042;-74
2024/01/20 10:07:59;;;;;;;1.50;1.40;;;0.70;99.90;;;;;;5157707;27;20559;-74
2024/01/20 10:10:25;;;;;;;1.50;1.40;;;0.80;99.90;;;;;;5158086;27;20054;-74
2024/01/20 10:12:52;;;;;;;1.23;1.13;;;0.80;99.90;;;;;;5158332;27;20386;-74
2024/01/20 10:15:22;;;;;;;1.35;1.25;;;0.90;99.90;;;;;;5157855;27;20047;-74
2024/01/20 10:17:48;;;;;;;2.05;1.95;;;1.10;99.90;;;;;;5157991;27;20043;-73
2024/01/20 10:20:21;;;;;;;1.50;1.40;;;1.10;99.90;;;;;;5157458;27;20382;-74
2024/01/20 10:22:48;;;;;;;1.27;1.17;;;1.20;99.90;;;;;;5158352;27;20047;-73
2024/01/20 10:25:18;;;;;;;1.63;1.52;;;1.20;99.90;;;;;;5157401;27;20547;-73
2024/01/20 10:27:50;;;;;;;1.67;1.58;;;1.20;99.90;;;;;;5157240;27;20505;-73
2024/01/20 10:30:17;;;;;;;1.40;1.30;;;1.30;99.90;;;;;;5139383;27;20513;-73
2024/01/20 10:32:44;;;;;;;;;;;1.20;99.90;;;;;;5158126;27;20221;-74
2024/01/20 10:35:10;;;;;;;1.33;1.23;;;1.20;99.90;;;;;;5157390;27;19919;-74
2024/01/20 10:37:38;;;;;;;1.58;1.48;;;1.20;99.90;;;;;;5157723;27;20050;-73
2024/01/20 10:40:05;;;;;;;1.52;1.42;;;1.20;99.90;;;;;;5157224;27;20039;-74
2024/01/20 10:42:32;;;;;;;;;;;1.20;99.90;;;;;;5158038;27;20042;-73
2024/01/20 10:45:06;;;;;;;1.20;1.10;;;1.20;99.90;;;;;;5157453;27;19974;-74
2024/01/20 10:47:36;;;;;;;1.60;1.50;;;1.20;99.90;;;;;;5157274;27;20042;-74
2024/01/20 10:50:04;;;;;;;1.75;1.40;;;1.30;99.90;;;;;;5157278;27;20053;-74
2024/01/20 10:52:36;;;;;;;1.20;1.10;;;1.30;99.90;;;;;;5157579;27;20038;-73
2024/01/20 10:55:03;;;;;;;1.50;1.40;;;1.30;99.90;;;;;;5157275;27;20050;-74
2024/01/20 10:57:29;;;;;;;;;;;1.40;99.90;;;;;;5157518;27;20038;-73
2024/01/20 10:59:57;;;;;;;1.40;1.30;;;1.40;99.90;;;;;;5157002;27;20245;-73
2024/01/20 11:02:24;;;;;;;1.40;1.30;;;1.40;99.90;;;;;;5156665;27;20542;-74
2024/01/20 11:04:49;;;;;;;2.75;2.28;;;1.50;99.90;;;;;;5156955;27;20042;-73
2024/01/20 11:07:22;;;;;;;1.40;1.30;;;1.50;99.90;;;;;;5156828;27;20043;-73
2024/01/20 11:09:59;;;;;;;3.10;2.50;;;1.50;99.90;;;;;;5157042;27;20037;-74
2024/01/20 11:12:26;;;;;;;1.55;1.30;;;1.60;99.90;;;;;;5156955;27;20050;-74
2024/01/20 11:14:58;;;;;;;1.75;1.63;;;1.60;99.90;;;;;;5156671;27;20379;-73
2024/01/20 11:17:24;;;;;;;1.52;1.42;;;1.60;99.90;;;;;;5156360;27;20586;-74
2024/01/20 11:19:53;;;;;;;3.33;3.13;;;1.60;99.90;;;;;;5156531;27;20095;-73
2024/01/20 11:22:31;;;;;;;1.50;1.40;;;1.60;99.90;;;;;;5156609;27;20056;-74
2024/01/20 11:24:57;;;;;;;1.20;1.10;;;1.60;99.90;;;;;;5156636;27;20125;-74
2024/01/20 11:27:23;;;;;;;1.20;1.10;;;1.60;99.90;;;;;;5156386;27;20130;-73
2024/01/20 11:29:48;;;;;;;1.93;1.83;;;1.60;99.90;;;;;;5156474;27;20083;-73
2024/01/20 11:32:14;;;;;;;1.77;1.67;;;1.60;99.90;;;;;;5138369;27;20042;-73
2024/01/20 11:34:43;;;;;;;1.63;1.52;;;1.60;99.90;;;;;;5156131;27;20073;-73
2024/01/20 11:37:09;;;;;;;1.40;1.30;;;1.60;99.90;;;;;;5156441;27;20039;-73
2024/01/20 11:39:35;;;;;;;1.20;1.10;;;1.60;99.90;;;;;;5155409;27;20164;-73
2024/01/20 11:42:03;;;;;;;1.20;1.10;;;1.60;99.90;;;;;;5156032;27;20046;-74
2024/01/20 11:44:31;;;;;;;1.50;1.40;;;1.50;99.90;;;;;;5137884;27;20031;-73
2024/01/20 11:47:00;;;;;;;1.30;1.20;;;2.90;99.90;;;;;;5156106;27;20095;-73
2024/01/20 11:49:26;;;;;;;2.60;2.40;;;1.60;99.90;;;;;;5156031;27;20122;-73
2024/01/20 11:51:52;;;;;;;1.20;1.10;;;1.60;99.90;;;;;;5156186;27;20050;-74
2024/01/20 11:54:18;;;;;;;1.27;1.17;;;1.70;99.90;;;;;;5156110;27;20054;-74
2024/01/20 11:56:44;;;;;;;6.18;2.58;;;1.70;99.90;;;;;;5155928;27;20165;-74
2024/01/20 11:59:12;;;;;;;1.40;1.30;;;1.80;99.90;;;;;;5155951;27;20034;-75
2024/01/20 12:01:37;;;;;;;1.27;1.17;;;1.80;99.90;;;;;;5155816;27;20046;-74
2024/01/20 12:04:03;;;;;;;3.22;2.35;;;1.80;99.90;;;;;;5155479;27;20504;-74
2024/01/20 12:06:29;;;;;;;1.50;1.40;;;1.80;99.90;;;;;;5155440;27;20041;-74
2024/01/20 12:08:58;;;;;;;1.30;1.20;;;1.80;99.90;;;;;;5155756;27;20085;-73
2024/01/20 12:11:24;;;;;;;1.30;1.20;;;1.80;99.90;;;;;;5155659;27;20039;-74
2024/01/20 12:13:49;;;;;;;1.50;1.40;;;1.90;99.90;;;;;;5155670;27;20134;-74
2024/01/20 12:16:16;;;;;;;1.40;1.30;;;1.90;99.90;;;;;;5155653;27;20469;-74
2024/01/20 12:18:42;;;;;;;1.23;1.13;;;1.90;99.90;;;;;;5155494;27;20132;-74
2024/01/20 12:21:07;;;;;;;1.45;1.35;;;1.90;99.90;;;;;;5155323;27;20039;-74
2024/01/20 12:23:35;;;;;;;6.22;3.72;;;1.90;99.90;;;;;;5155577;27;20082;-74
2024/01/20 12:26:01;;;;;;;1.80;1.70;;;1.90;99.90;;;;;;5155907;27;20049;-74
2024/01/20 12:28:27;;;;;;;1.30;1.20;;;1.90;99.90;;;;;;5155411;27;20480;-74
2024/01/20 12:30:52;;;;;;;1.30;1.20;;;1.90;99.90;;;;;;5155814;27;20050;-74
2024/01/20 12:33:18;;;;;;;1.50;1.40;;;1.90;99.90;;;;;;5155630;27;20039;-74
2024/01/20 12:35:44;;;;;;;3.53;2.47;;;1.90;99.90;;;;;;5155484;27;20043;-74
2024/01/20 12:38:10;;;;;;;1.30;1.20;;;1.90;99.90;;;;;;5155833;27;20042;-74
2024/01/20 12:40:36;;;;;;;1.30;1.20;;;1.90;99.90;;;;;;5155168;27;20661;-74
2024/01/20 12:43:02;;;;;;;1.83;1.63;;;2.00;99.90;;;;;;5155722;27;20039;-74
2024/01/20 12:45:28;;;;;;;1.30;1.20;;;2.00;99.90;;;;;;5155225;27;20438;-74
2024/01/20 12:47:53;;;;;;;1.60;1.50;;;2.00;99.90;;;;;;5155431;27;20099;-74